• Join FlightAware (Why Join?)
  • Login
  • US Flag GB Flag 
14:32 EDT


 

Airport Tracker/Info


-or-


 

Live Flight TrackerFlight Track Log ✈ N830QS ✈ 23-Jan-2014 ✈ KSLN - KJAC

Flight Track Log - Related Links

Times and Time Zones

All times are in EST time to prevent confusion due to time zone crossing. See the N830QS flight status page for this flight to view local times or setup timezone preferences in your user account.

Time Position Orientation Groundspeed Altitude Reporting Facility
EST Latitude Longitude Course Direction KTS MPH feet Rate Location/Type
20:33 38.8214 -97.6478 North 182 209 2,900  Level Kansas City Center
20:34 38.8639 -97.7092 312° West 229 264 7,300 4,320 Climbing Kansas City Center
20:35 38.9022 -97.7828 304° West 256 295 12,000 4,260 Climbing Kansas City Center
20:36 38.9503 -97.8742 304° West 294 338 16,000 3,720 Climbing Kansas City Center
20:37 39.0008 -97.9739 303° West 307 353 19,600 3,300 Climbing Kansas City Center
20:38 39.0483 -98.0644 304° West 306 352 23,000 3,120 Climbing Kansas City Center
20:39 39.0953 -98.1589 303° West 312 359 26,100 2,820 Climbing Kansas City Center
20:40 39.1400 -98.2589 300° West 316 364 28,800 2,520 Climbing Kansas City Center
20:41 39.1853 -98.3633 299° West 320 368 31,300 2,100 Climbing Kansas City Center
20:42 39.2272 -98.4594 299° West 323 372 33,200 1,680 Climbing Kansas City Center
20:43 39.2750 -98.5658 300° West 322 371 34,800 1,260 Climbing Kansas City Center
20:44 39.3186 -98.6664 299° West 335 386 35,900 1,080 Climbing Kansas City Center
20:45 39.3700 -98.7844 299° West 336 387 37,100 1,080 Climbing Kansas City Center
20:46 39.4097 -98.8756 299° West 342 394 38,000 420 Climbing Denver Center
20:47 39.4556 -98.9847 299° West 344 396 38,000 300 Level Denver Center
20:48 39.5050 -99.0992 299° West 359 413 38,700 600 Climbing Denver Center
20:49 39.5439 -99.1886 299° West 357 411 39,300 600 Climbing Denver Center
20:50 39.5997 -99.3206 299° West 348 400 40,000 300 Climbing Denver Center
20:51 39.6572 -99.4569 299° West 359 413 40,000  Level Denver Center
20:52 39.7061 -99.5728 299° West 363 418 40,000  Level Denver Center
20:53 39.7572 -99.6911 299° West 371 427 40,000  Level Denver Center
20:54 39.8061 -99.8111 298° West 375 432 40,000  Level Denver Center
20:55 39.8575 -99.9311 299° West 378 435 40,000  Level Denver Center
20:56 39.9061 -100.0514 298° West 375 432 40,000  Level Denver Center
20:57 39.9561 -100.1711 299° West 376 433 40,000  Level Denver Center
20:58 40.0106 -100.3025 298° West 374 430 40,000  Level Denver Center
21:00 40.0656 -100.4356 298° West 374 430 40,000  Level Denver Center
21:01 40.1128 -100.5506 298° West 373 429 40,000  Level Denver Center
21:02 40.1594 -100.6656 298° West 373 429 40,000  Level Denver Center
21:03 40.2142 -100.8014 298° West 376 433 40,000  Level Denver Center
21:04 40.2608 -100.9169 298° West 375 432 40,000  Level Denver Center
21:05 40.3158 -101.0525 298° West 375 432 40,000  Level Denver Center
21:06 40.3622 -101.1697 297° West 376 433 40,000  Level Denver Center
21:07 40.4167 -101.3067 298° West 378 435 40,000  Level Denver Center
21:08 40.4633 -101.4239 298° West 378 435 40,000  Level Denver Center
21:09 40.5094 -101.5411 297° West 377 434 40,000  Level Denver Center
21:10 40.5633 -101.6781 297° West 376 433 40,000  Level Denver Center
21:11 40.6250 -101.8344 297° West 377 434 40,000  Level Denver Center
21:12 40.6714 -101.9539 297° West 380 437 40,000  Level Denver Center
21:13 40.7183 -102.0733 297° West 383 441 40,000  Level Denver Center
21:14 40.7722 -102.2144 297° West 385 443 40,000  Level Denver Center
21:15 40.8181 -102.3358 297° West 386 444 40,000  Level Denver Center
21:16 40.8733 -102.4783 297° West 390 449 40,000  Level Denver Center
21:17 40.9203 -102.6017 297° West 391 450 40,000  Level Denver Center
21:18 40.9750 -102.7450 297° West 392 451 40,000  Level Denver Center
21:19 41.0222 -102.8689 297° West 393 452 40,000  Level Denver Center
21:20 41.0719 -103.0039 296° West 390 449 40,000  Level Denver Center
21:21 41.1269 -103.1492 297° West 394 453 40,000  Level Denver Center
21:22 41.1731 -103.2736 296° West 393 452 40,000  Level Denver Center
21:23 41.2197 -103.3944 297° West 385 443 40,000  Level Denver Center
21:24 41.2731 -103.5408 296° West 392 451 40,000  Level Denver Center
21:26 41.3183 -103.6656 296° West 391 450 40,000  Level Denver Center
21:27 41.3719 -103.8092 296° West 389 448 40,000  Level Denver Center
21:28 41.4167 -103.9353 295° West 391 450 40,000  Level Denver Center
21:29 41.4692 -104.0817 296° West 391 450 40,000  Level Denver Center
21:30 41.5147 -104.2075 296° West 393 452 40,000  Level Denver Center
21:31 41.5678 -104.3539 296° West 392 451 40,000  Level Denver Center
21:32 41.6136 -104.4811 296° West 395 455 40,000  Level Denver Center
21:33 41.6581 -104.6075 295° West 394 453 40,000  Level Denver Center
21:34 41.7111 -104.7569 295° West 396 456 40,000  Level Denver Center
21:35 41.7564 -104.8844 295° West 396 456 40,000  Level Denver Center
21:36 41.8094 -105.0353 295° West 398 458 40,000  Level Denver Center
21:37 41.8550 -105.1647 295° West 399 459 40,000  Level Denver Center
21:38 41.9072 -105.3167 295° West 400 460 40,000  Level Denver Center
21:39 41.9528 -105.4467 295° West 401 461 40,000  Level Denver Center
21:40 41.9981 -105.5792 295° West 405 466 40,000  Level Denver Center
21:41 42.0497 -105.7311 295° West 402 463 40,000  Level Denver Center
21:42 42.0936 -105.8617 294° West 400 460 40,000  Level Denver Center
21:43 42.1447 -106.0131 295° West 399 459 40,000  Level Denver Center
21:44 42.1900 -106.1461 295° West 405 466 40,000  Level Denver Center
21:45 42.2403 -106.2986 294° West 400 460 40,000  Level Denver Center
21:46 42.2853 -106.4303 295° West 403 464 40,000  Level Denver Center
21:47 42.3339 -106.5794 294° West 403 464 40,000  Level Denver Center
21:48 42.3794 -106.7167 294° West 401 461 40,000  Level Denver Center
21:49 42.4233 -106.8481 294° West 400 460 40,000  Level Denver Center
21:50 42.4717 -106.9967 294° West 403 464 40,000  Level Denver Center
21:51 42.5233 -107.1528 294° West 407 468 40,000  Level Denver Center
21:52 42.5653 -107.2856 293° West 404 465 40,000  Level Denver Center
21:53 42.6158 -107.4436 294° West 410 472 40,000  Level Denver Center
21:54 42.6597 -107.5797 294° West 411 473 40,000  Level Denver Center
21:55 42.7028 -107.7164 293° West 412 474 40,000  Level Denver Center
21:57 42.7678 -107.9233 293° West 416 479 40,000  Level Salt Lake Center
21:58 42.8175 -108.0822 293° West 412 474 40,000  Level Salt Lake Center
21:59 42.8553 -108.2219 290° West 414 476 40,000  Level Salt Lake Center
22:00 42.8794 -108.3967 281° West 419 482 40,000  Level Salt Lake Center
22:01 42.8978 -108.5469 280° West 422 486 40,000  Level Salt Lake Center
22:02 42.9197 -108.7214 280° West 421 484 40,000  Level Salt Lake Center
22:03 42.9386 -108.8717 280° West 422 486 40,000  Level Salt Lake Center
22:04 42.9567 -109.0228 279° West 423 487 40,000 -960 Level Salt Lake Center
22:05 42.9769 -109.1881 280° West 418 481 38,100 -2,040 Descending Salt Lake Center
22:06 42.9958 -109.3472 279° West 423 487 35,800 -2,340 Descending Salt Lake Center
22:07 43.0161 -109.5150 279° West 442 509 33,400 -2,400 Descending Salt Lake Center
22:08 43.0361 -109.6847 279° West 451 519 31,000 -2,820 Descending Salt Lake Center
22:09 43.0575 -109.8761 279° West 440 506 27,700 -3,060 Descending Salt Lake Center
22:10 43.0750 -110.0325 279° West 435 501 24,800 -3,060 Descending Salt Lake Center
22:11 43.0933 -110.2072 278° West 419 482 21,400 -2,940 Descending Salt Lake Center
22:12 43.1092 -110.3494 279° West 396 456 18,800 -2,100 Descending Salt Lake Center
22:13 43.1236 -110.4842 278° West 380 437 17,100 -2,160 Descending Salt Lake Center
22:14 43.1408 -110.6344 279° West 352 405 14,400 -2,040 Descending Salt Lake Center
22:15 43.1539 -110.7569 278° West 331 381 13,000 -720 Descending Salt Lake Center
22:16 43.1747 -110.8531 287° West 281 323 13,000  Level Salt Lake Center
22:17 43.2344 -110.9103 325° Northwest 265 305 13,000 -600 Level Salt Lake Center
22:18 43.3053 -110.8844 15° North 265 305 11,800 -1,200 Descending Salt Lake Center
22:19 43.3731 -110.8522 19° North 261 300 10,600 -840 Descending Salt Lake Center
22:20 43.4242 -110.8275 19° North 221 254 10,100 -840 Descending Salt Lake Center
22:21 43.4742 -110.8033 19° North 202 232 9,000 -960 Descending Salt Lake Center
22:23 43.5167 -110.7825 20° North 183 211 8,200 -840 Descending Salt Lake Center
22:24 43.5578 -110.7619 20° North 152 175 7,300 -840 Descending Salt Lake Center
22:25 43.5883 -110.7469 20° North 132 152 6,600 -720 Descending Salt Lake Center